createdAt,value
2018-11-25T00:00:33.473Z,4.82
2018-11-25T00:03:04.142Z,4.80
2018-11-25T00:05:34.776Z,4.78
2018-11-25T00:08:05.625Z,4.76
2018-11-25T00:10:36.363Z,4.77
2018-11-25T00:13:07.140Z,4.75
2018-11-25T00:15:37.812Z,4.74
2018-11-25T00:18:08.460Z,4.75
2018-11-25T00:20:39.166Z,4.74
2018-11-25T00:23:09.837Z,4.73
2018-11-25T00:25:40.526Z,4.73
2018-11-25T00:28:11.152Z,4.73
2018-11-25T00:30:41.841Z,4.71
2018-11-25T00:33:12.512Z,4.69
2018-11-25T00:35:43.195Z,4.69
2018-11-25T00:38:13.934Z,4.71
2018-11-25T00:40:44.644Z,4.71
2018-11-25T00:43:15.320Z,4.71
2018-11-25T00:45:46.028Z,4.71
2018-11-25T00:48:16.773Z,4.69
2018-11-25T00:50:47.388Z,4.69
2018-11-25T00:53:17.961Z,4.71
2018-11-25T00:55:48.669Z,4.67
2018-11-25T00:58:19.335Z,4.67
2018-11-25T01:00:49.971Z,4.67
2018-11-25T01:03:20.683Z,4.67
2018-11-25T01:05:51.334Z,4.67
2018-11-25T01:08:21.991Z,4.67
2018-11-25T01:10:52.921Z,4.69
2018-11-25T01:13:23.587Z,4.68
2018-11-25T01:15:54.280Z,4.68
2018-11-25T01:18:24.992Z,4.67
2018-11-25T01:20:55.644Z,4.66
2018-11-25T01:23:26.297Z,4.66
2018-11-25T01:25:56.983Z,4.67
2018-11-25T01:28:27.645Z,4.66
2018-11-25T01:30:58.253Z,4.66
2018-11-25T01:33:28.946Z,4.67
2018-11-25T01:35:59.641Z,4.66
2018-11-25T01:38:30.460Z,4.70
2018-11-25T01:41:01.190Z,4.68
2018-11-25T01:43:31.905Z,4.67
2018-11-25T01:46:02.622Z,4.64
2018-11-25T01:48:33.244Z,4.62
2018-11-25T01:51:03.941Z,4.65
2018-11-25T01:53:34.613Z,4.61
2018-11-25T01:56:05.353Z,4.59
2018-11-25T01:58:36.012Z,4.59
2018-11-25T02:01:07.029Z,4.57
2018-11-25T02:03:37.689Z,4.57
2018-11-25T02:06:08.441Z,4.55
2018-11-25T02:08:39.108Z,4.53
2018-11-25T02:11:09.733Z,4.52
2018-11-25T02:13:40.434Z,4.54
2018-11-25T02:16:11.103Z,4.52
2018-11-25T02:18:41.784Z,4.57
2018-11-25T02:21:12.432Z,4.55
2018-11-25T02:23:43.135Z,4.54
2018-11-25T02:26:13.773Z,4.55
2018-11-25T02:28:44.409Z,4.55
2018-11-25T02:31:15.126Z,4.56
2018-11-25T02:33:45.862Z,4.55
2018-11-25T02:36:16.640Z,4.55
2018-11-25T02:38:49.142Z,4.57
2018-11-25T02:41:19.811Z,4.58
2018-11-25T02:43:50.500Z,4.58
2018-11-25T02:46:21.464Z,4.56
2018-11-25T02:48:52.111Z,4.58
2018-11-25T02:51:22.757Z,4.58
2018-11-25T02:53:53.451Z,4.58
2018-11-25T02:56:24.084Z,4.57
2018-11-25T02:58:54.701Z,4.57
2018-11-25T03:01:25.436Z,4.58
2018-11-25T03:03:56.128Z,4.59
2018-11-25T03:06:26.758Z,4.59
2018-11-25T03:08:57.427Z,4.61
2018-11-25T03:11:28.151Z,4.61
2018-11-25T03:13:58.791Z,4.57
2018-11-25T03:16:29.470Z,4.59
2018-11-25T03:19:00.095Z,4.59
2018-11-25T03:21:30.757Z,4.58
2018-11-25T03:24:01.497Z,4.58
2018-11-25T03:26:32.125Z,4.59
2018-11-25T03:29:02.800Z,4.57
2018-11-25T03:31:33.441Z,4.59
2018-11-25T03:34:04.137Z,5.05
2018-11-25T03:36:34.796Z,5.11
2018-11-25T03:39:08.108Z,5.03
2018-11-25T03:41:38.813Z,4.97
2018-11-25T03:44:09.486Z,4.92
2018-11-25T03:46:40.095Z,4.86
2018-11-25T03:49:10.741Z,4.80
2018-11-25T03:51:41.400Z,4.77
2018-11-25T03:54:12.080Z,4.74
2018-11-25T03:56:42.810Z,4.72
2018-11-25T03:59:13.477Z,4.70
2018-11-25T04:01:44.188Z,4.66
2018-11-25T04:04:14.880Z,4.64
2018-11-25T04:06:45.553Z,4.62
2018-11-25T04:09:16.176Z,4.62
2018-11-25T04:11:46.861Z,4.61
2018-11-25T04:14:17.517Z,4.62
2018-11-25T04:16:48.252Z,4.62
2018-11-25T04:19:18.889Z,4.60
2018-11-25T04:21:49.573Z,4.63
2018-11-25T04:24:20.231Z,4.62
2018-11-25T04:26:50.913Z,4.57
2018-11-25T04:29:21.636Z,4.57
2018-11-25T04:31:52.302Z,4.52
2018-11-25T04:34:22.928Z,4.47
2018-11-25T04:36:53.672Z,4.45
2018-11-25T04:39:24.308Z,4.45
2018-11-25T04:41:54.951Z,4.47
2018-11-25T04:44:25.606Z,4.47
2018-11-25T04:46:56.257Z,4.48
2018-11-25T04:49:26.935Z,4.47
2018-11-25T04:51:57.565Z,4.49
2018-11-25T04:54:28.276Z,4.48
2018-11-25T04:56:58.899Z,4.49
2018-11-25T04:59:29.534Z,4.51
2018-11-25T05:02:00.118Z,4.54
2018-11-25T05:04:30.742Z,4.55
2018-11-25T05:07:01.370Z,4.54
2018-11-25T05:09:32.018Z,4.53
2018-11-25T05:12:02.669Z,4.54
2018-11-25T05:14:33.290Z,4.53
2018-11-25T05:17:03.948Z,4.53
2018-11-25T05:19:34.580Z,4.56
2018-11-25T05:22:05.321Z,4.57
2018-11-25T05:24:35.997Z,4.56
2018-11-25T05:27:06.893Z,4.56
2018-11-25T05:29:37.490Z,4.57
2018-11-25T05:32:08.181Z,4.57
2018-11-25T05:34:38.839Z,4.58
2018-11-25T05:37:09.496Z,4.57
2018-11-25T05:39:41.040Z,4.55
2018-11-25T05:42:12.540Z,4.56
2018-11-25T05:44:43.185Z,4.55
2018-11-25T05:47:13.851Z,4.51
2018-11-25T05:49:44.467Z,4.50
2018-11-25T05:52:15.124Z,4.51
2018-11-25T05:54:45.781Z,4.51
2018-11-25T05:57:16.449Z,4.51
2018-11-25T05:59:47.088Z,4.52
2018-11-25T06:02:17.765Z,4.52
2018-11-25T06:04:48.373Z,4.51
2018-11-25T06:07:19.030Z,4.51
2018-11-25T06:09:49.650Z,4.52
2018-11-25T06:12:20.299Z,4.52
2018-11-25T06:14:50.966Z,4.52
2018-11-25T06:17:21.596Z,4.53
2018-11-25T06:19:52.250Z,4.54
2018-11-25T06:22:22.858Z,4.54
2018-11-25T06:24:53.519Z,4.56
2018-11-25T06:27:24.133Z,4.54
2018-11-25T06:29:54.803Z,4.53
2018-11-25T06:32:25.956Z,4.56
2018-11-25T06:34:56.840Z,4.57
2018-11-25T06:37:27.450Z,4.57
2018-11-25T06:39:58.154Z,4.59
2018-11-25T06:42:28.811Z,4.56
2018-11-25T06:44:59.533Z,4.57
2018-11-25T06:47:30.215Z,4.56
2018-11-25T06:50:00.849Z,4.56
2018-11-25T06:52:31.490Z,4.55
2018-11-25T06:55:02.134Z,4.56
2018-11-25T06:57:32.836Z,4.56
2018-11-25T07:00:06.201Z,4.57
2018-11-25T07:02:36.880Z,4.56
2018-11-25T07:05:08.484Z,4.58
2018-11-25T07:07:39.199Z,4.59
2018-11-25T07:10:18.550Z,4.57
2018-11-25T07:12:51.922Z,4.61
2018-11-25T07:15:22.580Z,4.58
2018-11-25T07:17:53.257Z,4.62
2018-11-25T07:20:23.919Z,4.60
2018-11-25T07:22:54.586Z,4.59
2018-11-25T07:25:25.613Z,4.62
2018-11-25T07:27:56.292Z,4.61
2018-11-25T07:30:29.438Z,4.60
2018-11-25T07:33:00.196Z,4.63
2018-11-25T07:35:30.846Z,4.59
2018-11-25T07:38:01.518Z,4.58
2018-11-25T07:40:32.165Z,4.63
2018-11-25T07:43:02.800Z,4.62
2018-11-25T07:45:33.483Z,4.63
2018-11-25T07:48:04.191Z,4.64
2018-11-25T07:50:34.957Z,4.65
2018-11-25T07:53:05.688Z,4.68
2018-11-25T07:55:36.385Z,4.64
2018-11-25T07:58:07.261Z,4.65
2018-11-25T08:00:38.013Z,4.71
2018-11-25T08:03:08.756Z,4.66
2018-11-25T08:05:39.410Z,4.67
2018-11-25T08:08:10.108Z,4.64
2018-11-25T08:10:40.754Z,4.67
2018-11-25T08:13:11.384Z,4.70
2018-11-25T08:15:41.997Z,4.68
2018-11-25T08:18:12.699Z,4.67
2018-11-25T08:20:43.310Z,4.69
2018-11-25T08:23:15.594Z,4.71
2018-11-25T08:25:44.661Z,4.71
2018-11-25T08:28:15.316Z,4.71
2018-11-25T08:30:46.045Z,4.74
2018-11-25T08:33:16.820Z,4.73
2018-11-25T08:35:47.524Z,4.76
2018-11-25T08:38:18.153Z,4.76
2018-11-25T08:40:48.888Z,4.82
2018-11-25T08:43:19.648Z,4.81
2018-11-25T08:45:50.250Z,4.78
2018-11-25T08:48:20.969Z,4.78
2018-11-25T08:50:51.620Z,4.78
2018-11-25T08:53:22.276Z,4.78
2018-11-25T08:55:52.933Z,4.78
2018-11-25T08:58:23.546Z,4.79
2018-11-25T09:00:55.530Z,4.83
2018-11-25T09:03:26.235Z,4.87
2018-11-25T09:05:56.901Z,4.87
2018-11-25T09:08:27.606Z,4.92
2018-11-25T09:10:58.286Z,4.99
2018-11-25T09:13:28.931Z,5.04
2018-11-25T09:15:59.574Z,5.09
2018-11-25T09:18:30.243Z,5.03
2018-11-25T09:21:00.920Z,5.05
2018-11-25T09:23:31.546Z,5.06
2018-11-25T09:26:02.274Z,5.04
2018-11-25T09:28:32.945Z,5.06
2018-11-25T09:31:03.677Z,5.22
2018-11-25T09:33:34.334Z,5.09
2018-11-25T09:36:05.048Z,5.07
2018-11-25T09:38:35.706Z,4.98
2018-11-25T09:41:06.738Z,5.00
2018-11-25T09:43:37.469Z,5.09
2018-11-25T09:46:08.306Z,5.03
2018-11-25T09:48:39.128Z,5.04
2018-11-25T09:51:09.764Z,5.09
2018-11-25T09:53:40.440Z,5.00
2018-11-25T09:56:11.125Z,5.02
2018-11-25T09:58:41.774Z,5.01
2018-11-25T10:01:12.440Z,4.98
2018-11-25T10:03:43.109Z,4.97
2018-11-25T10:06:13.725Z,5.01
2018-11-25T10:08:44.438Z,5.02
2018-11-25T10:11:15.144Z,5.03
2018-11-25T10:13:45.797Z,5.07
2018-11-25T10:16:16.456Z,5.07
2018-11-25T10:18:47.103Z,5.11
2018-11-25T10:21:17.802Z,5.11
2018-11-25T10:23:48.465Z,5.04
2018-11-25T10:26:19.164Z,5.06
2018-11-25T10:28:49.838Z,4.99
2018-11-25T10:31:20.485Z,5.03
2018-11-25T10:33:51.175Z,5.01
2018-11-25T10:36:21.844Z,4.99
2018-11-25T10:38:52.484Z,5.00
2018-11-25T10:41:23.181Z,5.17
2018-11-25T10:43:53.882Z,5.07
2018-11-25T10:46:24.596Z,5.00
2018-11-25T10:48:55.331Z,5.09
2018-11-25T10:51:26.008Z,5.07
2018-11-25T10:53:56.687Z,5.05
2018-11-25T10:56:27.443Z,5.12
2018-11-25T10:58:58.185Z,5.12
2018-11-25T11:01:34.144Z,5.05
2018-11-25T11:04:05.671Z,5.04
2018-11-25T11:06:41.476Z,5.01
2018-11-25T11:09:12.113Z,5.09
2018-11-25T11:11:42.845Z,5.13
2018-11-25T11:14:13.489Z,5.17
2018-11-25T11:16:44.192Z,5.07
2018-11-25T11:19:14.849Z,5.01
2018-11-25T11:21:45.527Z,4.98
2018-11-25T11:24:16.279Z,5.00
2018-11-25T11:26:46.993Z,5.01
2018-11-25T11:29:17.699Z,5.09
2018-11-25T11:31:48.380Z,5.09
2018-11-25T11:34:19.040Z,5.12
2018-11-25T11:36:49.704Z,5.07
2018-11-25T11:39:20.394Z,5.12
2018-11-25T11:41:51.034Z,5.12
2018-11-25T11:44:21.749Z,5.21
2018-11-25T11:46:52.417Z,5.16
2018-11-25T11:49:23.145Z,5.15
2018-11-25T11:51:53.905Z,5.18
2018-11-25T11:54:24.574Z,5.18
2018-11-25T11:56:55.241Z,5.18
2018-11-25T11:59:25.931Z,5.12
2018-11-25T12:01:56.701Z,5.09
2018-11-25T12:04:27.504Z,5.08
2018-11-25T12:06:58.227Z,5.12
2018-11-25T12:09:28.962Z,5.08
2018-11-25T12:11:59.853Z,5.06
2018-11-25T12:14:30.527Z,5.01
2018-11-25T12:17:01.164Z,5.06
2018-11-25T12:19:31.810Z,4.96
2018-11-25T12:22:02.521Z,5.02
2018-11-25T12:24:33.273Z,4.99
2018-11-25T12:27:03.960Z,4.93
2018-11-25T12:29:34.690Z,4.94
2018-11-25T12:32:05.765Z,4.94
2018-11-25T12:34:36.532Z,4.97
2018-11-25T12:37:07.402Z,4.98
2018-11-25T12:39:38.161Z,5.03
2018-11-25T12:42:08.818Z,5.57
2018-11-25T12:44:39.472Z,6.11
2018-11-25T12:47:10.076Z,6.44
2018-11-25T12:49:40.704Z,6.72
2018-11-25T12:52:11.393Z,6.99
2018-11-25T12:54:42.041Z,7.31
2018-11-25T12:57:12.806Z,7.32
2018-11-25T12:59:43.461Z,7.56
2018-11-25T13:02:14.298Z,7.40
2018-11-25T13:04:45.092Z,7.09
2018-11-25T13:07:15.763Z,6.76
2018-11-25T13:09:46.591Z,6.41
2018-11-25T13:12:17.401Z,6.25
2018-11-25T13:14:48.196Z,6.06
2018-11-25T13:17:19.039Z,5.85
2018-11-25T13:19:49.759Z,5.74
2018-11-25T13:22:20.508Z,5.73
2018-11-25T13:24:51.213Z,5.62
2018-11-25T13:27:22.002Z,5.48
2018-11-25T13:29:52.727Z,5.50
2018-11-25T13:32:23.455Z,5.46
2018-11-25T13:34:54.226Z,5.34
2018-11-25T13:37:24.906Z,5.27
2018-11-25T13:39:55.648Z,5.26
2018-11-25T13:42:26.316Z,5.22
2018-11-25T13:44:55.188Z,5.23
2018-11-25T13:47:25.938Z,5.22
2018-11-25T13:49:56.598Z,5.13
2018-11-25T13:52:27.290Z,5.08
2018-11-25T13:54:57.991Z,5.10
2018-11-25T13:57:28.770Z,5.12
2018-11-25T13:59:59.610Z,5.06
2018-11-25T14:02:30.364Z,5.03
2018-11-25T14:05:01.101Z,4.95
2018-11-25T14:07:31.800Z,4.91
2018-11-25T14:10:02.520Z,4.86
2018-11-25T14:12:33.351Z,4.85
2018-11-25T14:15:04.174Z,4.84
2018-11-25T14:17:34.886Z,4.86
2018-11-25T14:20:09.375Z,4.83
2018-11-25T14:22:40.113Z,4.82
2018-11-25T14:25:16.496Z,4.85
2018-11-25T14:27:49.086Z,4.82
2018-11-25T14:30:22.543Z,4.80
2018-11-25T14:32:53.252Z,4.79
2018-11-25T14:35:24.009Z,4.79
2018-11-25T14:37:54.676Z,4.78
2018-11-25T14:40:25.331Z,4.77
2018-11-25T14:42:55.972Z,4.70
2018-11-25T14:45:26.779Z,4.75
2018-11-25T14:47:57.520Z,4.69
2018-11-25T14:50:28.246Z,4.65
2018-11-25T14:52:59.008Z,4.67
2018-11-25T14:55:29.750Z,4.68
2018-11-25T14:58:00.445Z,4.68
2018-11-25T15:00:31.212Z,4.81
2018-11-25T15:03:03.946Z,4.71
2018-11-25T15:05:50.342Z,4.76
2018-11-25T15:08:25.941Z,4.71
2018-11-25T15:10:56.695Z,4.67
2018-11-25T15:13:27.358Z,4.68
2018-11-25T15:15:59.953Z,4.69
2018-11-25T15:18:30.641Z,4.68
2018-11-25T15:21:01.395Z,4.63
2018-11-25T15:23:32.127Z,4.67
2018-11-25T15:26:02.949Z,4.73
2018-11-25T15:28:33.925Z,4.59
2018-11-25T15:31:04.962Z,4.68
2018-11-25T15:33:36.408Z,4.63
2018-11-25T15:36:07.417Z,4.62
2018-11-25T15:38:38.128Z,4.51
2018-11-25T15:41:08.893Z,4.48
2018-11-25T15:43:39.553Z,4.39
2018-11-25T15:46:10.248Z,4.45
2018-11-25T15:48:40.928Z,4.41
2018-11-25T15:51:11.669Z,4.38
2018-11-25T15:53:42.343Z,4.53
2018-11-25T15:56:13.039Z,4.50
2018-11-25T15:58:43.718Z,4.46
2018-11-25T16:01:14.433Z,4.48
2018-11-25T16:03:45.113Z,4.46
2018-11-25T16:06:25.328Z,4.45
2018-11-25T16:08:55.969Z,4.46
2018-11-25T16:11:26.733Z,4.43
2018-11-25T16:13:57.439Z,4.39
2018-11-25T16:16:28.222Z,4.41
2018-11-25T16:18:58.860Z,4.44
2018-11-25T16:21:29.546Z,4.47
2018-11-25T16:24:00.229Z,4.48
2018-11-25T16:26:34.671Z,4.48
2018-11-25T16:29:41.241Z,4.66
2018-11-25T16:32:11.905Z,4.53
2018-11-25T16:34:42.592Z,4.50
2018-11-25T16:37:14.005Z,4.55
2018-11-25T16:39:45.723Z,4.55
2018-11-25T16:42:16.385Z,4.58
2018-11-25T16:44:48.252Z,4.56
2018-11-25T16:47:18.929Z,4.63
2018-11-25T16:49:49.581Z,4.63
2018-11-25T16:52:20.341Z,4.69
2018-11-25T16:54:51.005Z,4.66
2018-11-25T16:57:21.817Z,4.67
2018-11-25T16:59:52.444Z,4.68
2018-11-25T17:02:23.345Z,4.64
2018-11-25T17:04:54.017Z,4.56
2018-11-25T17:07:24.727Z,4.62
2018-11-25T17:09:55.382Z,4.73
2018-11-25T17:12:26.019Z,4.65
2018-11-25T17:14:56.944Z,4.73
2018-11-25T17:17:27.625Z,4.70
2018-11-25T17:19:58.548Z,4.66
2018-11-25T17:22:30.429Z,4.65
2018-11-25T17:25:01.146Z,4.68
2018-11-25T17:27:31.797Z,4.65
2018-11-25T17:30:02.534Z,4.66
2018-11-25T17:32:33.209Z,4.81
2018-11-25T17:35:03.927Z,4.74
2018-11-25T17:37:34.527Z,4.65
2018-11-25T17:40:07.366Z,4.74
2018-11-25T17:42:38.344Z,4.69
2018-11-25T17:45:11.516Z,4.70
2018-11-25T17:47:42.894Z,4.72
2018-11-25T17:50:29.473Z,4.70
2018-11-25T17:53:01.959Z,4.71
2018-11-25T17:55:33.432Z,4.64
2018-11-25T17:58:04.154Z,4.64
2018-11-25T18:00:45.009Z,4.62
2018-11-25T18:03:21.200Z,4.62
2018-11-25T18:05:51.943Z,4.62
2018-11-25T18:08:22.775Z,4.60
2018-11-25T18:10:53.515Z,4.63
2018-11-25T18:13:26.636Z,4.57
2018-11-25T18:15:59.600Z,4.53
2018-11-25T18:18:52.294Z,4.56
2018-11-25T18:21:25.524Z,4.57
2018-11-25T18:23:56.609Z,4.59
2018-11-25T18:26:27.280Z,4.58
2018-11-25T18:28:58.008Z,4.59
2018-11-25T18:31:28.684Z,4.62
2018-11-25T18:33:59.312Z,4.60
2018-11-25T18:36:30.032Z,4.69
2018-11-25T18:39:00.662Z,4.61
2018-11-25T18:41:31.419Z,4.63
2018-11-25T18:44:42.297Z,4.67
2018-11-25T18:47:13.017Z,4.70
2018-11-25T18:49:43.726Z,4.78
2018-11-25T18:52:14.412Z,4.72
2018-11-25T18:54:47.636Z,4.71
2018-11-25T18:57:18.340Z,4.79
2018-11-25T18:59:49.024Z,4.74
2018-11-25T19:02:29.733Z,4.80
2018-11-25T19:05:00.387Z,4.72
2018-11-25T19:07:31.778Z,4.80
2018-11-25T19:10:02.428Z,4.85
2018-11-25T19:12:33.155Z,4.82
2018-11-25T19:15:09.351Z,4.85
2018-11-25T19:17:40.086Z,4.83
2018-11-25T19:20:21.019Z,4.86
2018-11-25T19:22:51.700Z,4.92
2018-11-25T19:25:22.401Z,4.89
2018-11-25T19:27:53.619Z,4.98
2018-11-25T19:30:26.803Z,4.96
2018-11-25T19:32:55.017Z,4.86
2018-11-25T19:35:25.710Z,4.90
2018-11-25T19:37:56.403Z,4.89
2018-11-25T19:40:28.182Z,4.88
2018-11-25T19:42:58.842Z,4.91
2018-11-25T19:45:29.673Z,4.98
2018-11-25T19:48:00.296Z,4.98
2018-11-25T19:50:34.994Z,4.97
2018-11-25T19:53:07.158Z,4.93
2018-11-25T19:55:38.007Z,4.95
2018-11-25T19:58:08.906Z,4.92
2018-11-25T20:00:39.641Z,4.93
2018-11-25T20:03:10.289Z,4.96
2018-11-25T20:05:40.989Z,4.94
2018-11-25T20:08:11.716Z,4.87
2018-11-25T20:10:42.368Z,4.99
2018-11-25T20:13:13.060Z,5.02
2018-11-25T20:15:43.813Z,5.03
2018-11-25T20:18:14.512Z,4.98
2018-11-25T20:20:49.456Z,5.08
2018-11-25T20:23:20.180Z,5.04
2018-11-25T20:25:50.774Z,5.08
2018-11-25T20:28:21.562Z,5.07
2018-11-25T20:30:52.234Z,5.10
2018-11-25T20:33:28.062Z,5.06
2018-11-25T20:35:58.758Z,5.02
2018-11-25T20:38:34.522Z,5.01
2018-11-25T20:41:05.264Z,5.08
2018-11-25T20:43:36.050Z,5.03
2018-11-25T20:46:12.313Z,5.11
2018-11-25T20:48:43.046Z,5.10
2018-11-25T20:51:13.802Z,5.04
2018-11-25T20:53:49.746Z,5.02
2018-11-25T20:56:20.468Z,4.97
2018-11-25T20:58:51.164Z,4.98
2018-11-25T21:01:21.824Z,5.00
2018-11-25T21:03:52.505Z,5.09
2018-11-25T21:06:23.180Z,5.00
2018-11-25T21:08:53.903Z,5.03
2018-11-25T21:11:24.527Z,5.06
2018-11-25T21:13:55.213Z,5.17
2018-11-25T21:16:25.914Z,5.23
2018-11-25T21:18:56.607Z,5.15
2018-11-25T21:21:27.374Z,5.15
2018-11-25T21:23:58.081Z,5.17
2018-11-25T21:26:28.815Z,5.21
2018-11-25T21:28:59.464Z,5.28
2018-11-25T21:31:30.130Z,5.27
2018-11-25T21:34:00.797Z,5.21
2018-11-25T21:36:31.518Z,5.21
2018-11-25T21:39:02.148Z,5.19
2018-11-25T21:41:32.860Z,5.22
2018-11-25T21:44:03.528Z,5.26
2018-11-25T21:46:34.224Z,5.31
2018-11-25T21:49:04.959Z,5.30
2018-11-25T21:51:35.565Z,5.23
2018-11-25T21:54:06.415Z,5.23
2018-11-25T21:56:37.154Z,5.22
2018-11-25T21:59:07.808Z,5.23
2018-11-25T22:01:38.387Z,5.43
2018-11-25T22:04:09.042Z,5.46
2018-11-25T22:06:39.785Z,5.43
2018-11-25T22:09:11.088Z,5.38
2018-11-25T22:11:41.745Z,5.35
2018-11-25T22:14:12.357Z,5.47
2018-11-25T22:16:42.987Z,5.43
2018-11-25T22:19:13.642Z,5.37
2018-11-25T22:21:44.322Z,5.37
2018-11-25T22:24:14.945Z,5.45
2018-11-25T22:26:45.673Z,5.48
2018-11-25T22:29:16.400Z,5.39
2018-11-25T22:31:47.034Z,5.45
2018-11-25T22:34:17.687Z,5.48
2018-11-25T22:36:48.536Z,5.40
2018-11-25T22:39:19.235Z,5.45
2018-11-25T22:41:49.893Z,5.48
2018-11-25T22:44:20.521Z,5.48
2018-11-25T22:46:51.192Z,5.49
2018-11-25T22:49:21.850Z,5.40
2018-11-25T22:51:52.454Z,5.41
2018-11-25T22:54:23.187Z,5.52
2018-11-25T22:56:53.800Z,5.39
2018-11-25T22:59:24.492Z,5.48
2018-11-25T23:01:55.168Z,5.49
2018-11-25T23:04:42.544Z,5.47
2018-11-25T23:07:13.291Z,5.47
2018-11-25T23:09:43.905Z,5.45
2018-11-25T23:12:14.542Z,5.46
2018-11-25T23:14:45.202Z,5.46
2018-11-25T23:17:15.817Z,5.48
2018-11-25T23:19:46.466Z,5.45
2018-11-25T23:22:17.218Z,5.47
2018-11-25T23:24:47.905Z,5.46
2018-11-25T23:27:18.573Z,5.48
2018-11-25T23:29:49.199Z,5.44
2018-11-25T23:32:19.836Z,5.48
2018-11-25T23:34:50.481Z,5.44
2018-11-25T23:37:21.164Z,5.42
2018-11-25T23:39:51.809Z,5.39
2018-11-25T23:42:22.508Z,5.39
2018-11-25T23:44:53.185Z,5.44
2018-11-25T23:47:23.897Z,5.43
2018-11-25T23:49:54.558Z,5.39
2018-11-25T23:52:25.202Z,5.38
2018-11-25T23:54:55.887Z,5.40
2018-11-25T23:57:26.554Z,5.43
2018-11-25T23:59:57.209Z,5.37
